Time;durP1;ratioP1;P1;durP2;ratioP2;P2;SDS_P1;SDS_P2;PMS_P1;PMS_P2;Temp;Humidity;BMP_temperature;BMP_pressure;BME280_temperature;BME280_humidity;BME280_pressure;Samples;Min_cycle;Max_cycle;Signal;HPM_P1;HPM_P2
2022/01/29 00:01:49;;;;;;;39.75;18.98;;;6.80;99.90;;;;;;5043751;28;20400;-67
2022/01/29 00:04:16;;;;;;;37.53;17.23;;;6.80;99.90;;;;;;5044944;28;20137;-67
2022/01/29 00:06:45;;;;;;;36.70;16.60;;;6.80;99.90;;;;;;5045499;28;20041;-67
2022/01/29 00:09:14;;;;;;;37.85;16.75;;;6.80;99.90;;;;;;5035719;28;20133;-67
2022/01/29 00:11:41;;;;;;;41.70;18.45;;;6.70;99.90;;;;;;5044580;28;20411;-67
2022/01/29 00:14:06;;;;;;;48.83;19.40;;;6.70;99.90;;;;;;5045779;28;20049;-67
2022/01/29 00:16:33;;;;;;;36.22;17.17;;;6.70;99.90;;;;;;5044030;28;20044;-67
2022/01/29 00:18:58;;;;;;;39.53;19.10;;;6.70;99.90;;;;;;5041654;28;20033;-67
2022/01/29 00:21:24;;;;;;;38.05;17.60;;;6.70;99.90;;;;;;5045771;28;20056;-67
2022/01/29 00:23:50;;;;;;;41.15;18.35;;;6.70;99.90;;;;;;5040339;28;20038;-67
2022/01/29 00:26:20;;;;;;;33.72;17.15;;;6.70;99.90;;;;;;5034284;28;20068;-67
2022/01/29 00:28:45;;;;;;;34.92;17.48;;;6.70;99.90;;;;;;5043834;28;20107;-67
2022/01/29 00:31:11;;;;;;;37.17;17.98;;;6.70;99.90;;;;;;5033936;28;20484;-67
2022/01/29 00:33:38;;;;;;;31.40;18.02;;;6.70;99.90;;;;;;5039615;28;20041;-67
2022/01/29 00:36:04;;;;;;;42.40;19.17;;;6.70;99.90;;;;;;5045399;28;20056;-67
2022/01/29 00:38:30;;;;;;;43.20;19.63;;;6.70;99.90;;;;;;5045762;28;20037;-67
2022/01/29 00:40:55;;;;;;;38.47;18.25;;;6.70;99.90;;;;;;5044183;28;20518;-67
2022/01/29 00:43:21;;;;;;;45.70;20.77;;;6.80;99.90;;;;;;5041354;28;20259;-67
2022/01/29 00:45:47;;;;;;;39.03;19.65;;;6.70;99.90;;;;;;5037315;28;20056;-67
2022/01/29 00:48:12;;;;;;;34.80;19.48;;;6.70;99.90;;;;;;5043611;28;20064;-67
2022/01/29 00:50:38;;;;;;;38.88;18.20;;;6.70;99.90;;;;;;5045337;28;20542;-67
2022/01/29 00:53:03;;;;;;;33.38;19.17;;;6.70;99.90;;;;;;5037602;28;20053;-67
2022/01/29 00:55:29;;;;;;;43.22;21.30;;;6.70;99.90;;;;;;5046323;28;20500;-67
2022/01/29 00:57:55;;;;;;;41.33;20.15;;;6.70;99.90;;;;;;5036715;28;20413;-67
2022/01/29 01:00:20;;;;;;;40.70;20.80;;;6.70;99.90;;;;;;5035206;28;20069;-67
2022/01/29 01:02:46;;;;;;;32.50;18.92;;;6.70;99.90;;;;;;5040881;28;20025;-67
2022/01/29 01:05:12;;;;;;;41.63;21.48;;;6.70;99.90;;;;;;5037688;28;20424;-67
2022/01/29 01:07:38;;;;;;;38.10;20.88;;;6.70;99.90;;;;;;5034672;28;20069;-67
2022/01/29 01:10:06;;;;;;;39.25;21.67;;;6.70;99.90;;;;;;5055438;28;20124;-67
2022/01/29 01:12:32;;;;;;;41.65;20.48;;;6.70;99.90;;;;;;5044228;28;20047;-67
2022/01/29 01:14:58;;;;;;;41.67;21.95;;;6.80;99.90;;;;;;5040941;28;20052;-67
2022/01/29 01:17:23;;;;;;;38.03;20.88;;;6.70;99.90;;;;;;5039058;28;20041;-67
2022/01/29 01:19:49;;;;;;;38.90;20.98;;;6.70;99.90;;;;;;5036643;28;20048;-67
2022/01/29 01:22:16;;;;;;;37.45;20.58;;;6.70;99.90;;;;;;5040814;28;20041;-67
2022/01/29 01:24:42;;;;;;;43.90;22.00;;;6.70;99.90;;;;;;5038663;28;20123;-67
2022/01/29 01:27:08;;;;;;;38.88;21.38;;;6.70;99.90;;;;;;5041443;28;20044;-67
2022/01/29 01:29:34;;;;;;;40.33;20.38;;;6.70;99.90;;;;;;5036608;28;20757;-67
2022/01/29 01:31:59;;;;;;;39.97;21.80;;;6.70;99.90;;;;;;5042124;28;20112;-67
2022/01/29 01:34:28;;;;;;;40.90;22.45;;;6.70;99.90;;;;;;5041828;28;20084;-67
2022/01/29 01:36:59;;;;;;;42.72;20.60;;;6.70;99.90;;;;;;5044577;28;20041;-67
2022/01/29 01:39:29;;;;;;;39.10;19.45;;;6.80;99.90;;;;;;5043645;28;20060;-67
2022/01/29 01:42:03;;;;;;;42.28;20.63;;;6.80;99.90;;;;;;5041690;28;20056;-67
2022/01/29 01:44:46;;;;;;;41.15;22.05;;;6.80;99.90;;;;;;5042912;28;20044;-67
2022/01/29 01:47:12;;;;;;;39.25;20.27;;;6.90;99.90;;;;;;5036750;28;20102;-67
2022/01/29 01:49:38;;;;;;;40.80;20.83;;;6.90;99.90;;;;;;5036409;28;20598;-67
2022/01/29 01:52:08;;;;;;;47.70;21.75;;;6.90;99.90;;;;;;5032985;28;20041;-67
2022/01/29 01:54:34;;;;;;;40.83;20.67;;;7.00;99.90;;;;;;5042719;28;20075;-67
2022/01/29 01:57:00;;;;;;;41.35;22.10;;;7.00;99.90;;;;;;5039729;28;20476;-67
2022/01/29 01:59:27;;;;;;;50.08;22.17;;;7.10;99.90;;;;;;5039341;28;20049;-67
2022/01/29 02:01:53;;;;;;;52.17;23.27;;;7.00;99.90;;;;;;5039339;28;20113;-67
2022/01/29 02:04:18;;;;;;;45.35;22.23;;;7.00;99.90;;;;;;5041664;28;20175;-67
2022/01/29 02:06:46;;;;;;;44.97;19.10;;;7.00;99.90;;;;;;5034417;28;20048;-67
2022/01/29 02:09:15;;;;;;;46.67;22.73;;;7.00;99.90;;;;;;5041512;28;20065;-67
2022/01/29 02:11:58;;;;;;;43.28;22.45;;;7.10;99.90;;;;;;5041966;28;20056;-66
2022/01/29 02:14:29;;;;;;;51.70;25.63;;;7.10;99.90;;;;;;5043999;28;20393;-67
2022/01/29 02:16:54;;;;;;;49.90;22.52;;;7.70;99.90;;;;;;5038786;28;20417;-67
2022/01/29 02:19:20;;;;;;;54.55;24.35;;;7.10;99.90;;;;;;5037672;28;20132;-67
2022/01/29 02:21:46;;;;;;;53.90;23.85;;;7.10;99.90;;;;;;5046194;28;20056;-67
2022/01/29 02:24:12;;;;;;;44.92;21.17;;;7.10;99.90;;;;;;5048537;28;20072;-67
2022/01/29 02:26:38;;;;;;;55.75;21.83;;;7.20;99.90;;;;;;5044804;28;20464;-67
2022/01/29 02:29:04;;;;;;;52.03;22.27;;;6.20;99.90;;;;;;5047332;28;20045;-67
2022/01/29 02:31:30;;;;;;;40.97;20.63;;;7.20;99.90;;;;;;5044188;28;20076;-67
2022/01/29 02:33:55;;;;;;;48.63;21.55;;;7.20;99.90;;;;;;5043078;28;20472;-67
2022/01/29 02:36:21;;;;;;;57.80;23.02;;;7.20;99.90;;;;;;5042142;28;20064;-67
2022/01/29 02:38:47;;;;;;;53.30;23.15;;;7.20;99.90;;;;;;5048362;28;20043;-67
2022/01/29 02:41:13;;;;;;;50.42;23.15;;;7.20;99.90;;;;;;5040064;28;20037;-67
2022/01/29 02:43:47;;;;;;;53.22;23.52;;;7.20;99.90;;;;;;5045579;28;20071;-67
2022/01/29 02:48:43;;;;;;;49.60;21.30;;;7.20;99.90;;;;;;5055908;28;20056;-67
2022/01/29 02:51:09;;;;;;;48.55;23.17;;;7.30;99.90;;;;;;5047973;28;20179;-67
2022/01/29 02:53:34;;;;;;;48.80;23.40;;;7.30;99.90;;;;;;5034323;28;20152;-67
2022/01/29 02:56:00;;;;;;;44.83;21.60;;;7.30;99.90;;;;;;5040751;28;20077;-67
2022/01/29 02:58:29;;;;;;;39.33;19.95;;;7.30;99.90;;;;;;5038462;28;20106;-67
2022/01/29 03:00:54;;;;;;;58.17;23.20;;;7.40;99.90;;;;;;5048448;28;20053;-67
2022/01/29 03:03:20;;;;;;;42.22;22.00;;;7.30;99.90;;;;;;5044013;28;20102;-67
2022/01/29 03:05:46;;;;;;;53.95;21.58;;;7.30;99.90;;;;;;5045478;28;20041;-67
2022/01/29 03:08:11;;;;;;;52.97;23.50;;;7.30;99.90;;;;;;5034706;28;20057;-67
2022/01/29 03:10:38;;;;;;;45.08;20.77;;;7.30;99.90;;;;;;5039369;28;20045;-67
2022/01/29 03:13:04;;;;;;;48.90;22.77;;;7.30;99.90;;;;;;5047037;28;20044;-67
2022/01/29 03:15:30;;;;;;;52.00;22.88;;;7.30;99.90;;;;;;5038080;28;20127;-67
2022/01/29 03:17:55;;;;;;;45.03;21.45;;;7.40;99.90;;;;;;5040687;28;20127;-67
2022/01/29 03:20:21;;;;;;;36.88;19.73;;;7.40;99.90;;;;;;5035418;28;20056;-67
2022/01/29 03:22:47;;;;;;;44.90;21.17;;;7.40;99.90;;;;;;5045169;28;20085;-67
2022/01/29 03:25:12;;;;;;;53.17;22.98;;;7.40;99.90;;;;;;5047505;28;20064;-67
2022/01/29 03:27:38;;;;;;;43.97;20.33;;;7.40;99.90;;;;;;5039956;28;20100;-67
2022/01/29 03:30:06;;;;;;;47.72;21.63;;;7.40;99.90;;;;;;5041798;28;20480;-67
2022/01/29 03:32:32;;;;;;;45.03;19.45;;;7.50;99.90;;;;;;5043197;28;20075;-67
2022/01/29 03:34:57;;;;;;;43.22;19.38;;;7.40;99.90;;;;;;5045363;28;20704;-67
2022/01/29 03:37:23;;;;;;;48.90;20.23;;;7.50;99.90;;;;;;5038676;28;20045;-67
2022/01/29 03:39:49;;;;;;;47.72;19.75;;;7.40;99.90;;;;;;5038401;28;20055;-67
2022/01/29 03:42:15;;;;;;;33.88;17.45;;;7.50;99.90;;;;;;5041601;28;20136;-67
2022/01/29 03:44:41;;;;;;;36.17;18.33;;;7.50;99.90;;;;;;5041663;28;20085;-67
2022/01/29 03:47:07;;;;;;;38.03;18.77;;;7.50;99.90;;;;;;5040371;28;20063;-67
2022/01/29 03:49:32;;;;;;;44.88;20.88;;;7.50;99.90;;;;;;5039285;28;20048;-67
2022/01/29 03:51:58;;;;;;;47.42;19.67;;;7.50;99.90;;;;;;5043704;28;20449;-67
2022/01/29 03:54:23;;;;;;;38.45;18.55;;;7.50;99.90;;;;;;5044898;28;20105;-67
2022/01/29 03:56:49;;;;;;;37.42;17.98;;;7.60;99.90;;;;;;5044223;28;20069;-67
2022/01/29 03:59:15;;;;;;;34.47;18.02;;;7.50;99.90;;;;;;5041577;28;20051;-67
2022/01/29 04:01:40;;;;;;;39.58;17.70;;;7.60;99.90;;;;;;5037262;28;20125;-67
2022/01/29 04:04:06;;;;;;;39.30;18.23;;;7.60;99.90;;;;;;5040262;28;20099;-66
2022/01/29 04:06:32;;;;;;;38.40;19.23;;;7.60;99.90;;;;;;5039232;28;20496;-66
2022/01/29 04:08:58;;;;;;;41.03;18.42;;;7.60;99.90;;;;;;5044422;28;20044;-66
2022/01/29 04:11:25;;;;;;;30.88;15.70;;;7.60;99.90;;;;;;5041770;28;20047;-66
2022/01/29 04:13:50;;;;;;;34.92;16.95;;;7.70;99.90;;;;;;5042683;28;20511;-66
2022/01/29 04:16:17;;;;;;;37.15;17.48;;;7.70;99.90;;;;;;5051234;28;20049;-67
2022/01/29 04:18:43;;;;;;;39.03;17.45;;;7.70;99.90;;;;;;5040901;28;20044;-66
2022/01/29 04:21:09;;;;;;;36.08;18.55;;;7.70;99.90;;;;;;5051163;28;20090;-67
2022/01/29 04:23:35;;;;;;;40.35;17.52;;;7.70;99.90;;;;;;5044128;28;20497;-67
2022/01/29 04:26:03;;;;;;;38.17;17.85;;;7.70;99.90;;;;;;5038699;28;20051;-67
2022/01/29 04:28:33;;;;;;;38.53;18.63;;;7.70;99.90;;;;;;5041821;28;20045;-67
2022/01/29 04:31:04;;;;;;;37.30;18.08;;;7.70;99.90;;;;;;5043309;28;20029;-67
2022/01/29 04:33:30;;;;;;;33.22;17.23;;;7.70;99.90;;;;;;5035615;28;20121;-67
2022/01/29 04:36:03;;;;;;;43.63;19.15;;;7.70;99.90;;;;;;5042848;28;20132;-67
2022/01/29 04:38:30;;;;;;;38.30;16.87;;;7.70;99.90;;;;;;5052653;28;20042;-67
2022/01/29 04:40:58;;;;;;;40.28;19.00;;;7.70;99.90;;;;;;5037704;28;20307;-67
2022/01/29 04:43:23;;;;;;;33.80;15.75;;;7.70;99.90;;;;;;5038066;28;20145;-67
2022/01/29 04:45:49;;;;;;;35.20;17.48;;;7.70;99.90;;;;;;5043059;28;20095;-67
2022/01/29 04:48:15;;;;;;;34.38;17.65;;;7.80;99.90;;;;;;5045082;28;20029;-67
2022/01/29 04:50:40;;;;;;;30.02;16.48;;;7.80;99.90;;;;;;5041346;28;20128;-67
2022/01/29 04:53:06;;;;;;;28.55;16.25;;;7.80;99.90;;;;;;5039848;28;20056;-67
2022/01/29 04:55:33;;;;;;;36.85;16.40;;;7.80;99.90;;;;;;5044424;28;20377;-67
2022/01/29 04:57:58;;;;;;;35.88;16.73;;;7.80;99.90;;;;;;5048291;28;20557;-67
2022/01/29 05:00:24;;;;;;;32.38;17.38;;;7.80;99.90;;;;;;5042017;28;20052;-67
2022/01/29 05:02:53;;;;;;;33.13;15.18;;;7.80;99.90;;;;;;5042414;28;20044;-67
2022/01/29 05:05:19;;;;;;;27.92;15.68;;;7.80;99.90;;;;;;5042588;28;20049;-67
2022/01/29 05:07:45;;;;;;;34.53;16.45;;;7.80;99.90;;;;;;5053360;28;20040;-67
2022/01/29 05:10:12;;;;;;;43.65;18.02;;;7.90;99.90;;;;;;5037601;28;20455;-67
2022/01/29 05:15:13;;;;;;;38.08;16.35;;;7.90;99.90;;;;;;5055534;28;20060;-67
2022/01/29 05:28:36;;;;;;;32.57;16.33;;;7.90;99.90;;;;;;5039723;28;20049;-67
2022/01/29 05:31:01;;;;;;;42.00;15.68;;;8.00;99.90;;;;;;5043162;28;20633;-67
2022/01/29 05:33:27;;;;;;;30.27;15.80;;;8.00;99.90;;;;;;5037755;28;20496;-67
2022/01/29 05:35:52;;;;;;;35.20;16.20;;;8.00;99.90;;;;;;5037785;28;20124;-67
2022/01/29 05:38:18;;;;;;;25.70;16.42;;;8.00;99.90;;;;;;5037792;28;20501;-67
2022/01/29 05:40:45;;;;;;;29.20;14.75;;;8.00;99.90;;;;;;5038573;28;20048;-67
2022/01/29 05:43:10;;;;;;;33.88;15.73;;;8.00;99.90;;;;;;5035199;28;20049;-67
2022/01/29 05:45:36;;;;;;;36.20;16.40;;;8.00;99.90;;;;;;5040462;28;20606;-67
2022/01/29 05:48:02;;;;;;;29.55;14.25;;;8.00;99.90;;;;;;5060729;28;20116;-67
2022/01/29 05:50:27;;;;;;;28.88;15.73;;;8.10;99.90;;;;;;5041992;28;20052;-67
2022/01/29 05:52:53;;;;;;;29.60;15.18;;;8.10;99.90;;;;;;5045841;28;20423;-67
2022/01/29 05:55:19;;;;;;;30.10;15.52;;;8.10;99.90;;;;;;5041788;28;20067;-67
2022/01/29 05:57:44;;;;;;;29.77;14.77;;;8.10;99.90;;;;;;5048251;28;20450;-67
2022/01/29 06:00:10;;;;;;;32.08;16.00;;;8.10;99.90;;;;;;5048458;28;20049;-67
2022/01/29 06:02:36;;;;;;;30.73;14.88;;;8.10;99.90;;;;;;5047527;28;20048;-67
2022/01/29 06:05:02;;;;;;;33.50;16.48;;;8.10;99.90;;;;;;5042336;28;20045;-67
2022/01/29 06:07:27;;;;;;;25.17;14.65;;;8.20;99.90;;;;;;5046974;28;20098;-68
2022/01/29 06:09:53;;;;;;;26.52;15.00;;;8.10;99.90;;;;;;5044669;28;20069;-67
2022/01/29 06:12:18;;;;;;;27.98;13.55;;;8.20;99.90;;;;;;5040943;28;20080;-67
2022/01/29 06:14:44;;;;;;;25.70;14.43;;;8.20;99.90;;;;;;5042364;28;20053;-67
2022/01/29 06:17:11;;;;;;;32.50;15.40;;;8.20;99.90;;;;;;5042964;28;20053;-67
2022/01/29 06:19:37;;;;;;;30.73;14.15;;;8.20;99.90;;;;;;5034838;28;20108;-67
2022/01/29 06:22:08;;;;;;;24.00;13.35;;;8.20;99.90;;;;;;5048202;28;20084;-67
2022/01/29 06:24:33;;;;;;;25.23;14.18;;;8.20;99.90;;;;;;5044488;28;20132;-67
2022/01/29 06:26:59;;;;;;;27.83;13.40;;;8.20;99.90;;;;;;5044078;28;20148;-67
2022/01/29 06:29:25;;;;;;;30.50;14.18;;;8.20;99.90;;;;;;5045931;28;20655;-67
2022/01/29 06:31:50;;;;;;;28.55;14.48;;;8.20;99.90;;;;;;5039380;28;20095;-67
2022/01/29 06:34:16;;;;;;;26.65;14.30;;;8.20;99.90;;;;;;5042612;28;20124;-67
2022/01/29 06:36:41;;;;;;;25.20;14.10;;;8.20;99.90;;;;;;5041647;28;20139;-67
2022/01/29 06:39:07;;;;;;;32.13;14.75;;;8.20;99.90;;;;;;5045992;28;20044;-67
2022/01/29 06:41:33;;;;;;;26.63;14.52;;;8.20;99.90;;;;;;5048863;28;20068;-67
2022/01/29 06:43:58;;;;;;;28.77;14.00;;;8.20;99.90;;;;;;5038956;28;20135;-68
2022/01/29 06:46:24;;;;;;;25.85;13.55;;;8.20;99.90;;;;;;5045656;28;20049;-67
2022/01/29 06:48:49;;;;;;;31.75;15.52;;;8.20;99.90;;;;;;5045117;28;20049;-67
2022/01/29 06:51:16;;;;;;;22.73;12.55;;;8.30;99.90;;;;;;5042100;28;20076;-67
2022/01/29 06:53:42;;;;;;;24.75;13.23;;;8.20;99.90;;;;;;5041126;28;20126;-67
2022/01/29 06:56:08;;;;;;;23.95;12.13;;;8.30;99.90;;;;;;5047424;28;20500;-67
2022/01/29 06:58:34;;;;;;;27.58;14.27;;;8.30;99.90;;;;;;5049398;28;20033;-67
2022/01/29 07:00:59;;;;;;;24.77;13.10;;;8.30;99.90;;;;;;5043995;28;20079;-66
2022/01/29 07:03:25;;;;;;;27.90;13.13;;;8.30;99.90;;;;;;5042776;28;20049;-67
2022/01/29 07:05:51;;;;;;;26.90;12.82;;;8.30;99.90;;;;;;5045266;28;20040;-66
2022/01/29 07:08:16;;;;;;;26.75;13.13;;;8.30;99.90;;;;;;5047903;28;20048;-66
2022/01/29 07:10:44;;;;;;;25.92;12.70;;;8.30;99.90;;;;;;5044822;28;20041;-67
2022/01/29 07:13:09;;;;;;;23.67;12.02;;;8.30;99.90;;;;;;5041511;28;20127;-66
2022/01/29 07:15:35;;;;;;;24.13;11.48;;;8.30;99.90;;;;;;5043456;28;20136;-66
2022/01/29 07:18:00;;;;;;;23.85;11.95;;;8.30;99.90;;;;;;5054982;28;20045;-66
2022/01/29 07:20:26;;;;;;;19.77;12.60;;;8.30;99.90;;;;;;5035441;28;20140;-66
2022/01/29 07:22:51;;;;;;;20.02;11.70;;;8.30;99.90;;;;;;5047896;28;20547;-68
2022/01/29 07:25:17;;;;;;;26.77;12.85;;;8.30;99.90;;;;;;5040765;28;20033;-69
2022/01/29 07:27:42;;;;;;;23.63;10.57;;;8.40;99.90;;;;;;5043239;28;20052;-68
2022/01/29 07:30:09;;;;;;;22.05;11.48;;;8.40;99.90;;;;;;5046420;28;20049;-69
2022/01/29 07:32:34;;;;;;;20.52;12.32;;;8.30;99.90;;;;;;5048386;28;20492;-69
2022/01/29 07:35:00;;;;;;;21.13;11.55;;;8.30;99.90;;;;;;5058342;28;20041;-68
2022/01/29 07:37:25;;;;;;;23.80;12.18;;;8.30;99.90;;;;;;5038676;28;20095;-69
2022/01/29 07:39:51;;;;;;;20.58;10.50;;;8.30;99.90;;;;;;5036004;28;20488;-68
2022/01/29 07:42:17;;;;;;;22.95;12.15;;;8.30;99.90;;;;;;5043891;28;20484;-68
2022/01/29 07:44:42;;;;;;;22.95;12.05;;;8.30;99.90;;;;;;5043545;28;20049;-68
2022/01/29 07:47:08;;;;;;;25.35;12.30;;;8.30;99.90;;;;;;5043668;28;20037;-68
2022/01/29 07:49:33;;;;;;;28.58;12.27;;;8.30;99.90;;;;;;5044668;28;20812;-70
2022/01/29 07:51:59;;;;;;;22.85;12.23;;;8.30;99.90;;;;;;5043583;28;20513;-70
2022/01/29 07:54:24;;;;;;;24.80;12.15;;;8.30;99.90;;;;;;5046499;28;20059;-70
2022/01/29 07:56:50;;;;;;;28.10;11.82;;;8.40;99.90;;;;;;5042987;28;20075;-70
2022/01/29 07:59:16;;;;;;;23.00;11.30;;;8.30;99.90;;;;;;5040648;28;20048;-70
2022/01/29 08:01:41;;;;;;;22.83;12.25;;;8.30;99.90;;;;;;5045294;28;20029;-70
2022/01/29 08:04:07;;;;;;;23.20;11.13;;;8.30;99.90;;;;;;5051367;28;20053;-69
2022/01/29 08:06:32;;;;;;;19.50;11.32;;;8.30;99.90;;;;;;5039963;28;20399;-69
2022/01/29 08:08:58;;;;;;;26.30;12.05;;;8.30;99.90;;;;;;5050978;28;20099;-69
2022/01/29 08:11:24;;;;;;;24.25;13.25;;;8.30;99.90;;;;;;5038825;28;20048;-70
2022/01/29 08:13:50;;;;;;;23.95;12.10;;;8.30;99.90;;;;;;5042709;28;20041;-70
2022/01/29 08:16:16;;;;;;;23.45;11.90;;;8.30;99.90;;;;;;5053103;28;20102;-71
2022/01/29 08:18:43;;;;;;;25.05;12.07;;;8.30;99.90;;;;;;5042746;28;20128;-69
2022/01/29 08:21:11;;;;;;;30.10;12.10;;;8.30;99.90;;;;;;5041076;28;20052;-70
2022/01/29 08:23:36;;;;;;;21.23;10.93;;;8.30;99.90;;;;;;5042387;28;20045;-69
2022/01/29 08:26:02;;;;;;;28.02;11.73;;;8.30;99.90;;;;;;5041240;28;20052;-70
2022/01/29 08:28:28;;;;;;;24.33;12.25;;;8.30;99.90;;;;;;5045911;28;20422;-69
2022/01/29 08:30:53;;;;;;;27.83;12.30;;;8.30;99.90;;;;;;5050077;28;20063;-70
2022/01/29 08:33:19;;;;;;;19.02;10.32;;;8.30;99.90;;;;;;5046821;28;20045;-70
2022/01/29 08:35:48;;;;;;;25.15;11.55;;;8.40;99.90;;;;;;5044618;28;20046;-70
2022/01/29 08:38:14;;;;;;;22.40;11.63;;;8.40;99.90;;;;;;5038860;28;20037;-70
2022/01/29 08:40:41;;;;;;;21.25;10.85;;;8.40;99.90;;;;;;5035836;28;20045;-70
2022/01/29 08:43:06;;;;;;;22.25;11.10;;;8.40;99.90;;;;;;5040544;28;20067;-71
2022/01/29 08:45:32;;;;;;;21.77;10.90;;;8.50;99.90;;;;;;5055768;28;20045;-72
2022/01/29 08:47:58;;;;;;;19.98;10.70;;;8.50;99.90;;;;;;5059330;28;20053;-72
2022/01/29 08:50:23;;;;;;;20.90;9.88;;;8.50;99.90;;;;;;5049763;28;20037;-71
2022/01/29 08:52:49;;;;;;;24.52;11.27;;;8.50;99.90;;;;;;5045017;28;20099;-72
2022/01/29 08:55:15;;;;;;;23.48;9.82;;;8.50;99.90;;;;;;5052687;28;20041;-71
2022/01/29 08:57:40;;;;;;;21.55;8.35;;;8.60;99.90;;;;;;5045456;28;20045;-71
2022/01/29 09:00:08;;;;;;;17.85;8.82;;;8.60;99.90;;;;;;5036679;28;20049;-71
2022/01/29 09:02:34;;;;;;;18.30;9.25;;;8.60;99.90;;;;;;5039421;28;20056;-70
2022/01/29 09:05:00;;;;;;;20.60;8.65;;;8.60;99.90;;;;;;5053299;28;20480;-70
2022/01/29 09:07:27;;;;;;;20.38;8.43;;;8.60;99.90;;;;;;5032593;28;20049;-71
2022/01/29 09:09:54;;;;;;;17.08;7.97;;;8.70;99.90;;;;;;5052110;28;20148;-70
2022/01/29 09:12:20;;;;;;;19.33;7.82;;;8.70;99.90;;;;;;5038436;28;20090;-70
2022/01/29 09:14:45;;;;;;;14.95;6.85;;;8.70;99.90;;;;;;5046286;28;20044;-69
2022/01/29 09:17:11;;;;;;;19.15;7.28;;;8.70;99.90;;;;;;5053554;28;20377;-70
2022/01/29 09:19:36;;;;;;;12.50;6.90;;;8.80;99.90;;;;;;5034779;28;20124;-70
2022/01/29 09:22:03;;;;;;;14.02;6.03;;;8.80;99.90;;;;;;5039719;28;20044;-70
2022/01/29 09:24:29;;;;;;;16.27;6.47;;;8.80;99.90;;;;;;5041636;28;20489;-70
2022/01/29 09:26:54;;;;;;;16.15;5.40;;;8.80;99.90;;;;;;5039170;28;20048;-70
2022/01/29 09:29:20;;;;;;;14.68;6.03;;;8.80;99.90;;;;;;5044839;28;20116;-70
2022/01/29 09:31:46;;;;;;;14.73;6.00;;;8.90;99.90;;;;;;5057846;28;20045;-70
2022/01/29 09:34:11;;;;;;;14.82;5.68;;;9.00;99.90;;;;;;5044726;28;20515;-70
2022/01/29 09:36:37;;;;;;;13.18;4.85;;;9.00;99.90;;;;;;5048259;28;20076;-70
2022/01/29 09:39:03;;;;;;;11.07;5.53;;;9.10;99.90;;;;;;5045133;28;20034;-71
2022/01/29 09:41:28;;;;;;;14.15;5.65;;;9.10;99.90;;;;;;5047887;28;20454;-71
2022/01/29 09:43:55;;;;;;;13.95;4.82;;;9.10;99.90;;;;;;5043899;28;20045;-70
2022/01/29 09:46:22;;;;;;;14.00;5.57;;;9.20;99.90;;;;;;5042857;28;20041;-70
2022/01/29 09:48:48;;;;;;;9.13;4.90;;;9.20;99.90;;;;;;5052686;28;20897;-70
2022/01/29 09:51:16;;;;;;;15.45;5.13;;;9.20;99.90;;;;;;5045908;28;20045;-70
2022/01/29 09:53:43;;;;;;;11.18;4.60;;;9.20;99.90;;;;;;5043881;28;20083;-71
2022/01/29 09:56:13;;;;;;;10.75;4.05;;;9.20;99.90;;;;;;5046669;28;20068;-71
2022/01/29 09:58:42;;;;;;;12.00;4.68;;;9.20;99.90;;;;;;5055846;28;20094;-72
2022/01/29 10:01:09;;;;;;;10.25;4.70;;;9.40;99.90;;;;;;5044468;28;20403;-72
2022/01/29 10:03:34;;;;;;;10.75;4.93;;;9.30;99.90;;;;;;5045140;28;20047;-71
2022/01/29 10:06:01;;;;;;;12.43;4.97;;;9.30;99.90;;;;;;5040030;28;20176;-71
2022/01/29 10:08:27;;;;;;;10.88;4.53;;;9.30;99.90;;;;;;5047497;28;20381;-71
2022/01/29 10:10:59;;;;;;;15.57;5.65;;;9.30;99.90;;;;;;5041603;28;20056;-71
2022/01/29 10:13:32;;;;;;;15.00;5.53;;;9.30;99.90;;;;;;5046561;28;20051;-71
2022/01/29 10:16:26;;;;;;;14.52;5.05;;;9.30;99.90;;;;;;5042866;28;20056;-71
2022/01/29 10:19:00;;;;;;;13.00;4.75;;;9.30;99.90;;;;;;5032969;28;20224;-71
2022/01/29 10:21:28;;;;;;;;;;;9.30;99.90;;;;;;5042015;28;20115;-71
2022/01/29 10:24:08;;;;;;;13.55;4.30;;;9.30;99.90;;;;;;5040993;28;19936;-75
2022/01/29 10:26:37;;;;;;;15.27;4.30;;;9.30;99.90;;;;;;5045123;28;20045;-75
2022/01/29 10:29:06;;;;;;;10.70;4.18;;;9.30;99.90;;;;;;5040036;28;20037;-72
2022/01/29 10:31:43;;;;;;;10.88;3.38;;;9.30;99.90;;;;;;5041075;28;20056;-72
2022/01/29 10:34:26;;;;;;;9.00;3.53;;;9.30;99.90;;;;;;5051127;28;20049;-72
2022/01/29 10:37:12;;;;;;;12.70;4.05;;;9.30;99.90;;;;;;5057188;28;20045;-71
2022/01/29 10:39:42;;;;;;;12.10;3.50;;;9.30;99.90;;;;;;5047706;28;20033;-72
2022/01/29 10:42:23;;;;;;;11.20;3.95;;;9.40;99.90;;;;;;5042804;28;20087;-72
2022/01/29 10:44:51;;;;;;;10.77;3.63;;;9.40;99.90;;;;;;5049630;28;20092;-71
2022/01/29 10:47:17;;;;;;;13.95;3.88;;;9.40;99.90;;;;;;5043466;28;20044;-71
2022/01/29 10:49:51;;;;;;;10.20;3.35;;;9.40;99.90;;;;;;5040440;28;20049;-72
2022/01/29 10:52:17;;;;;;;10.63;3.40;;;9.40;99.90;;;;;;5044444;28;20045;-71
2022/01/29 10:54:47;;;;;;;7.70;3.28;;;9.50;99.90;;;;;;5042941;28;20045;-71
2022/01/29 10:57:17;;;;;;;8.27;2.70;;;9.50;99.90;;;;;;5041150;28;20052;-71
2022/01/29 10:59:53;;;;;;;12.98;3.50;;;9.50;99.90;;;;;;5042880;28;20045;-71
2022/01/29 11:02:21;;;;;;;7.78;2.83;;;9.50;99.90;;;;;;5061598;28;20152;-71
2022/01/29 11:04:48;;;;;;;8.52;3.03;;;9.50;99.90;;;;;;5061241;28;20048;-73
2022/01/29 11:07:19;;;;;;;9.45;3.38;;;9.50;99.90;;;;;;5039402;28;20053;-71
2022/01/29 11:09:52;;;;;;;11.70;3.15;;;9.60;99.90;;;;;;5043580;28;20049;-71
2022/01/29 11:12:20;;;;;;;11.65;2.80;;;9.60;99.90;;;;;;5038433;28;20045;-71
2022/01/29 11:14:47;;;;;;;8.15;2.58;;;9.60;99.90;;;;;;5038876;28;20458;-72
2022/01/29 11:17:15;;;;;;;11.95;2.83;;;9.60;99.90;;;;;;5043962;28;20106;-72
2022/01/29 11:19:41;;;;;;;10.43;3.08;;;9.70;99.90;;;;;;5042690;28;20049;-74
2022/01/29 11:22:08;;;;;;;11.32;2.90;;;9.80;99.90;;;;;;5034938;28;20084;-73
2022/01/29 11:24:35;;;;;;;8.45;2.67;;;9.70;99.90;;;;;;5045701;28;20057;-72
2022/01/29 11:27:02;;;;;;;11.02;3.08;;;9.70;99.90;;;;;;5042300;28;20044;-73
2022/01/29 11:29:36;;;;;;;9.73;2.88;;;9.70;99.90;;;;;;5044780;28;20057;-73
2022/01/29 11:32:20;;;;;;;9.57;2.75;;;9.70;99.90;;;;;;5043663;28;20075;-70
2022/01/29 11:35:08;;;;;;;7.65;2.35;;;9.70;99.90;;;;;;5038358;28;20048;-70
2022/01/29 11:37:41;;;;;;;8.13;2.97;;;9.70;99.90;;;;;;5044857;28;20148;-71
2022/01/29 11:40:11;;;;;;;9.02;2.83;;;9.70;99.90;;;;;;5044931;28;20079;-71
2022/01/29 11:42:36;;;;;;;15.38;2.92;;;9.70;99.90;;;;;;5040102;28;20041;-70
2022/01/29 11:45:33;;;;;;;8.50;2.40;;;9.70;99.90;;;;;;5047066;28;20033;-73
2022/01/29 11:47:58;;;;;;;11.90;2.25;;;9.80;99.90;;;;;;5046716;28;20040;-71
2022/01/29 11:50:43;;;;;;;8.98;2.50;;;9.80;99.90;;;;;;5048400;28;20044;-72
2022/01/29 11:53:08;;;;;;;7.22;2.33;;;9.80;99.90;;;;;;5049405;28;20052;-72
2022/01/29 11:55:39;;;;;;;12.98;2.58;;;9.80;99.90;;;;;;5047416;28;20044;-72
2022/01/29 11:58:16;;;;;;;6.60;2.40;;;9.80;99.90;;;;;;5049176;28;20389;-72
2022/01/29 12:01:03;;;;;;;12.57;3.55;;;9.90;99.90;;;;;;5044703;28;20574;-73
2022/01/29 12:03:35;;;;;;;10.45;2.25;;;9.90;99.90;;;;;;5046677;28;20053;-72
2022/01/29 12:06:29;;;;;;;6.93;1.90;;;9.90;99.90;;;;;;5057116;28;20096;-72
2022/01/29 12:09:06;;;;;;;12.18;2.50;;;10.00;99.90;;;;;;5045045;28;20094;-73
2022/01/29 12:11:39;;;;;;;7.30;1.70;;;10.00;99.90;;;;;;5044904;28;20059;-72
2022/01/29 12:14:14;;;;;;;9.00;2.05;;;10.00;99.90;;;;;;5045916;28;20052;-76
2022/01/29 12:16:51;;;;;;;9.88;2.08;;;10.00;99.90;;;;;;5052593;28;20053;-76
2022/01/29 12:19:40;;;;;;;9.02;2.15;;;10.00;99.90;;;;;;5041865;28;20041;-77
2022/01/29 12:22:12;;;;;;;6.07;1.70;;;10.10;99.90;;;;;;5047642;28;20126;-75
2022/01/29 12:24:39;;;;;;;7.07;1.70;;;10.10;99.90;;;;;;5041784;28;20419;-75
2022/01/29 12:27:05;;;;;;;7.68;1.50;;;10.10;99.90;;;;;;5047621;28;20041;-73
2022/01/29 12:29:31;;;;;;;9.18;1.67;;;10.20;99.90;;;;;;5042794;28;20033;-74
2022/01/29 12:31:58;;;;;;;8.63;1.63;;;10.20;99.90;;;;;;5041725;28;20040;-74
2022/01/29 12:34:28;;;;;;;9.82;1.50;;;10.30;99.90;;;;;;5049764;28;20392;-74
2022/01/29 12:37:26;;;;;;;7.85;1.60;;;10.30;99.90;;;;;;5056381;28;20112;-74
2022/01/29 12:40:17;;;;;;;7.35;1.63;;;10.30;99.90;;;;;;5040920;28;20076;-75
2022/01/29 12:42:43;;;;;;;9.70;1.50;;;10.30;99.90;;;;;;5058857;28;20041;-73
2022/01/29 12:45:09;;;;;;;8.70;1.52;;;10.30;99.90;;;;;;5044534;28;20041;-73
2022/01/29 12:47:36;;;;;;;10.10;1.70;;;10.40;99.90;;;;;;5046993;28;20059;-73
2022/01/29 12:50:02;;;;;;;7.43;1.77;;;10.40;99.90;;;;;;5047739;28;20488;-74
2022/01/29 12:52:29;;;;;;;7.22;2.38;;;10.40;99.90;;;;;;5047769;28;20099;-74
2022/01/29 12:55:00;;;;;;;12.35;2.38;;;10.40;99.90;;;;;;5049432;28;20044;-73
2022/01/29 12:57:40;;;;;;;10.05;1.85;;;10.40;99.90;;;;;;5044932;28;20079;-73
2022/01/29 13:00:11;;;;;;;9.07;1.70;;;10.50;99.90;;;;;;5045736;28;20279;-73